sensor_id;sensor_type;location;lat;lon;timestamp;P1;durP1;ratioP1;P2;durP2;ratioP2
31298;SDS011;17927;52.350;13.402;2022-11-28T00:02:01;18.45;;;10.80;;
31298;SDS011;17927;52.350;13.402;2022-11-28T00:04:27;25.92;;;11.30;;
31298;SDS011;17927;52.350;13.402;2022-11-28T00:06:52;19.85;;;10.02;;
31298;SDS011;17927;52.350;13.402;2022-11-28T00:09:18;19.05;;;10.27;;
31298;SDS011;17927;52.350;13.402;2022-11-28T00:11:45;17.70;;;10.48;;
31298;SDS011;17927;52.350;13.402;2022-11-28T00:14:12;16.27;;;11.27;;
31298;SDS011;17927;52.350;13.402;2022-11-28T00:16:38;13.40;;;10.05;;
31298;SDS011;17927;52.350;13.402;2022-11-28T00:19:03;21.25;;;10.25;;
31298;SDS011;17927;52.350;13.402;2022-11-28T00:21:29;16.92;;;9.73;;
31298;SDS011;17927;52.350;13.402;2022-11-28T00:23:56;17.38;;;9.52;;
31298;SDS011;17927;52.350;13.402;2022-11-28T00:26:23;17.02;;;10.20;;
31298;SDS011;17927;52.350;13.402;2022-11-28T00:28:51;15.90;;;10.43;;
31298;SDS011;17927;52.350;13.402;2022-11-28T00:31:17;18.00;;;10.60;;
31298;SDS011;17927;52.350;13.402;2022-11-28T00:33:45;16.48;;;10.68;;
31298;SDS011;17927;52.350;13.402;2022-11-28T00:36:10;16.75;;;9.38;;
31298;SDS011;17927;52.350;13.402;2022-11-28T00:38:36;18.42;;;10.77;;
31298;SDS011;17927;52.350;13.402;2022-11-28T00:41:06;14.73;;;10.27;;
31298;SDS011;17927;52.350;13.402;2022-11-28T00:43:34;15.52;;;10.07;;
31298;SDS011;17927;52.350;13.402;2022-11-28T00:45:59;17.55;;;10.10;;
31298;SDS011;17927;52.350;13.402;2022-11-28T00:48:25;16.92;;;10.18;;
31298;SDS011;17927;52.350;13.402;2022-11-28T00:50:51;13.88;;;9.90;;
31298;SDS011;17927;52.350;13.402;2022-11-28T00:53:17;14.90;;;10.40;;
31298;SDS011;17927;52.350;13.402;2022-11-28T00:55:42;16.77;;;10.35;;
31298;SDS011;17927;52.350;13.402;2022-11-28T00:58:07;14.35;;;10.38;;
31298;SDS011;17927;52.350;13.402;2022-11-28T01:00:33;14.85;;;10.15;;
31298;SDS011;17927;52.350;13.402;2022-11-28T01:02:58;15.18;;;9.85;;
31298;SDS011;17927;52.350;13.402;2022-11-28T01:05:24;19.20;;;11.18;;
31298;SDS011;17927;52.350;13.402;2022-11-28T01:07:49;17.48;;;11.05;;
31298;SDS011;17927;52.350;13.402;2022-11-28T01:10:15;18.42;;;10.43;;
31298;SDS011;17927;52.350;13.402;2022-11-28T01:12:40;21.23;;;11.55;;
31298;SDS011;17927;52.350;13.402;2022-11-28T01:15:06;21.13;;;10.75;;
31298;SDS011;17927;52.350;13.402;2022-11-28T01:17:36;22.25;;;10.70;;
31298;SDS011;17927;52.350;13.402;2022-11-28T01:20:02;22.70;;;12.63;;
31298;SDS011;17927;52.350;13.402;2022-11-28T01:22:29;15.70;;;11.30;;
31298;SDS011;17927;52.350;13.402;2022-11-28T01:24:54;17.75;;;10.93;;
31298;SDS011;17927;52.350;13.402;2022-11-28T01:27:19;20.33;;;11.35;;
31298;SDS011;17927;52.350;13.402;2022-11-28T01:29:44;17.85;;;12.23;;
31298;SDS011;17927;52.350;13.402;2022-11-28T01:32:10;23.10;;;12.27;;
31298;SDS011;17927;52.350;13.402;2022-11-28T01:34:35;18.77;;;12.05;;
31298;SDS011;17927;52.350;13.402;2022-11-28T01:37:00;17.02;;;12.23;;
31298;SDS011;17927;52.350;13.402;2022-11-28T01:39:25;19.45;;;13.10;;
31298;SDS011;17927;52.350;13.402;2022-11-28T01:41:51;15.93;;;11.48;;
31298;SDS011;17927;52.350;13.402;2022-11-28T01:46:41;20.60;;;12.50;;
31298;SDS011;17927;52.350;13.402;2022-11-28T01:49:12;21.65;;;12.43;;
31298;SDS011;17927;52.350;13.402;2022-11-28T01:51:46;18.80;;;12.90;;
31298;SDS011;17927;52.350;13.402;2022-11-28T01:54:14;20.90;;;11.77;;
31298;SDS011;17927;52.350;13.402;2022-11-28T01:56:54;18.85;;;13.02;;
31298;SDS011;17927;52.350;13.402;2022-11-28T01:59:23;17.65;;;12.00;;
31298;SDS011;17927;52.350;13.402;2022-11-28T02:01:51;19.85;;;13.25;;
31298;SDS011;17927;52.350;13.402;2022-11-28T02:04:17;20.20;;;13.65;;
31298;SDS011;17927;52.350;13.402;2022-11-28T02:06:42;18.40;;;12.18;;
31298;SDS011;17927;52.350;13.402;2022-11-28T02:09:12;22.83;;;13.13;;
31298;SDS011;17927;52.350;13.402;2022-11-28T02:15:38;19.92;;;13.10;;
31298;SDS011;17927;52.350;13.402;2022-11-28T02:17:54;20.38;;;12.70;;
31298;SDS011;17927;52.350;13.402;2022-11-28T02:20:31;19.02;;;12.80;;
31298;SDS011;17927;52.350;13.402;2022-11-28T02:23:24;24.85;;;13.48;;
31298;SDS011;17927;52.350;13.402;2022-11-28T02:28:52;22.92;;;14.07;;
31298;SDS011;17927;52.350;13.402;2022-11-28T02:37:23;23.23;;;11.73;;
31298;SDS011;17927;52.350;13.402;2022-11-28T02:42:50;17.63;;;12.77;;
31298;SDS011;17927;52.350;13.402;2022-11-28T02:45:28;18.60;;;12.60;;
31298;SDS011;17927;52.350;13.402;2022-11-28T02:48:12;18.10;;;11.93;;
31298;SDS011;17927;52.350;13.402;2022-11-28T02:50:59;16.90;;;11.38;;
31298;SDS011;17927;52.350;13.402;2022-11-28T02:53:30;20.40;;;11.60;;
31298;SDS011;17927;52.350;13.402;2022-11-28T02:55:57;19.77;;;13.18;;
31298;SDS011;17927;52.350;13.402;2022-11-28T02:58:23;20.20;;;12.48;;
31298;SDS011;17927;52.350;13.402;2022-11-28T03:00:49;18.17;;;12.05;;
31298;SDS011;17927;52.350;13.402;2022-11-28T03:05:58;18.85;;;11.93;;
31298;SDS011;17927;52.350;13.402;2022-11-28T03:14:23;18.60;;;11.95;;
31298;SDS011;17927;52.350;13.402;2022-11-28T03:17:13;19.15;;;11.43;;
31298;SDS011;17927;52.350;13.402;2022-11-28T03:28:31;17.38;;;11.27;;
31298;SDS011;17927;52.350;13.402;2022-11-28T03:31:03;22.65;;;12.23;;
31298;SDS011;17927;52.350;13.402;2022-11-28T03:33:35;15.65;;;10.75;;
31298;SDS011;17927;52.350;13.402;2022-11-28T03:36:03;18.50;;;11.48;;
31298;SDS011;17927;52.350;13.402;2022-11-28T03:38:35;16.63;;;11.93;;
31298;SDS011;17927;52.350;13.402;2022-11-28T03:41:06;17.25;;;11.70;;
31298;SDS011;17927;52.350;13.402;2022-11-28T03:43:38;15.88;;;11.90;;
31298;SDS011;17927;52.350;13.402;2022-11-28T03:46:09;20.95;;;12.38;;
31298;SDS011;17927;52.350;13.402;2022-11-28T03:48:41;19.13;;;12.10;;
31298;SDS011;17927;52.350;13.402;2022-11-28T03:51:17;19.25;;;11.93;;
31298;SDS011;17927;52.350;13.402;2022-11-28T03:53:51;16.05;;;11.50;;
31298;SDS011;17927;52.350;13.402;2022-11-28T03:56:21;18.73;;;10.98;;
31298;SDS011;17927;52.350;13.402;2022-11-28T03:58:58;20.60;;;11.82;;
31298;SDS011;17927;52.350;13.402;2022-11-28T04:01:31;17.00;;;10.77;;
31298;SDS011;17927;52.350;13.402;2022-11-28T04:07:06;17.70;;;10.98;;
31298;SDS011;17927;52.350;13.402;2022-11-28T04:10:04;17.13;;;11.30;;
31298;SDS011;17927;52.350;13.402;2022-11-28T04:12:57;15.35;;;11.18;;
31298;SDS011;17927;52.350;13.402;2022-11-28T04:15:31;16.42;;;11.68;;
31298;SDS011;17927;52.350;13.402;2022-11-28T04:18:04;17.58;;;11.65;;
31298;SDS011;17927;52.350;13.402;2022-11-28T04:20:45;20.67;;;15.13;;
31298;SDS011;17927;52.350;13.402;2022-11-28T04:23:17;20.40;;;12.48;;
31298;SDS011;17927;52.350;13.402;2022-11-28T04:25:48;22.23;;;11.52;;
31298;SDS011;17927;52.350;13.402;2022-11-28T04:28:17;23.80;;;12.25;;
31298;SDS011;17927;52.350;13.402;2022-11-28T04:30:46;18.75;;;11.23;;
31298;SDS011;17927;52.350;13.402;2022-11-28T04:33:14;20.80;;;11.45;;
31298;SDS011;17927;52.350;13.402;2022-11-28T04:35:45;25.85;;;12.98;;
31298;SDS011;17927;52.350;13.402;2022-11-28T04:38:14;21.50;;;12.20;;
31298;SDS011;17927;52.350;13.402;2022-11-28T04:40:42;18.60;;;12.40;;
31298;SDS011;17927;52.350;13.402;2022-11-28T04:43:16;18.10;;;11.35;;
31298;SDS011;17927;52.350;13.402;2022-11-28T04:45:48;19.42;;;12.50;;
31298;SDS011;17927;52.350;13.402;2022-11-28T04:48:18;17.02;;;11.65;;
31298;SDS011;17927;52.350;13.402;2022-11-28T04:53:13;17.15;;;11.82;;
31298;SDS011;17927;52.350;13.402;2022-11-28T04:55:45;19.33;;;11.88;;
31298;SDS011;17927;52.350;13.402;2022-11-28T04:58:17;16.52;;;11.70;;
31298;SDS011;17927;52.350;13.402;2022-11-28T05:00:47;21.45;;;12.18;;
31298;SDS011;17927;52.350;13.402;2022-11-28T05:03:16;18.33;;;11.73;;
31298;SDS011;17927;52.350;13.402;2022-11-28T05:05:45;19.60;;;11.93;;
31298;SDS011;17927;52.350;13.402;2022-11-28T05:10:38;19.02;;;11.77;;
31298;SDS011;17927;52.350;13.402;2022-11-28T05:13:03;17.80;;;11.43;;
31298;SDS011;17927;52.350;13.402;2022-11-28T05:15:29;21.00;;;13.25;;
31298;SDS011;17927;52.350;13.402;2022-11-28T05:17:54;22.48;;;12.75;;
31298;SDS011;17927;52.350;13.402;2022-11-28T05:20:19;21.05;;;13.20;;
31298;SDS011;17927;52.350;13.402;2022-11-28T05:22:44;21.77;;;12.18;;
31298;SDS011;17927;52.350;13.402;2022-11-28T05:25:10;23.25;;;12.05;;
31298;SDS011;17927;52.350;13.402;2022-11-28T05:27:35;16.98;;;11.40;;
31298;SDS011;17927;52.350;13.402;2022-11-28T05:30:00;18.75;;;12.57;;
31298;SDS011;17927;52.350;13.402;2022-11-28T05:32:30;19.67;;;12.35;;
31298;SDS011;17927;52.350;13.402;2022-11-28T05:34:56;19.85;;;12.15;;
31298;SDS011;17927;52.350;13.402;2022-11-28T05:37:21;22.33;;;11.93;;
31298;SDS011;17927;52.350;13.402;2022-11-28T05:39:46;19.70;;;12.80;;
31298;SDS011;17927;52.350;13.402;2022-11-28T05:42:12;24.13;;;12.02;;
31298;SDS011;17927;52.350;13.402;2022-11-28T05:44:37;16.85;;;12.15;;
31298;SDS011;17927;52.350;13.402;2022-11-28T05:47:02;17.45;;;11.50;;
31298;SDS011;17927;52.350;13.402;2022-11-28T05:49:27;22.23;;;11.88;;
31298;SDS011;17927;52.350;13.402;2022-11-28T05:51:53;19.73;;;12.90;;
31298;SDS011;17927;52.350;13.402;2022-11-28T05:54:18;22.92;;;12.48;;
31298;SDS011;17927;52.350;13.402;2022-11-28T05:56:43;18.65;;;11.98;;
31298;SDS011;17927;52.350;13.402;2022-11-28T05:59:08;18.38;;;11.40;;
31298;SDS011;17927;52.350;13.402;2022-11-28T06:01:34;19.42;;;12.77;;
31298;SDS011;17927;52.350;13.402;2022-11-28T06:03:59;20.73;;;12.13;;
31298;SDS011;17927;52.350;13.402;2022-11-28T06:06:28;20.35;;;12.65;;
31298;SDS011;17927;52.350;13.402;2022-11-28T06:08:55;19.33;;;13.10;;
31298;SDS011;17927;52.350;13.402;2022-11-28T06:11:21;18.25;;;12.63;;
31298;SDS011;17927;52.350;13.402;2022-11-28T06:13:48;25.10;;;14.10;;
31298;SDS011;17927;52.350;13.402;2022-11-28T06:16:15;23.00;;;12.57;;
31298;SDS011;17927;52.350;13.402;2022-11-28T06:18:42;22.67;;;13.50;;
31298;SDS011;17927;52.350;13.402;2022-11-28T06:21:08;21.48;;;13.38;;
31298;SDS011;17927;52.350;13.402;2022-11-28T06:23:34;19.50;;;12.55;;
31298;SDS011;17927;52.350;13.402;2022-11-28T06:26:08;23.38;;;13.75;;
31298;SDS011;17927;52.350;13.402;2022-11-28T06:28:36;19.45;;;13.57;;
31298;SDS011;17927;52.350;13.402;2022-11-28T06:31:03;22.58;;;13.77;;
31298;SDS011;17927;52.350;13.402;2022-11-28T06:33:29;22.45;;;13.63;;
31298;SDS011;17927;52.350;13.402;2022-11-28T06:36:01;19.77;;;12.95;;
31298;SDS011;17927;52.350;13.402;2022-11-28T06:38:27;22.83;;;13.75;;
31298;SDS011;17927;52.350;13.402;2022-11-28T06:40:59;26.73;;;14.13;;
31298;SDS011;17927;52.350;13.402;2022-11-28T06:43:26;20.33;;;13.75;;
31298;SDS011;17927;52.350;13.402;2022-11-28T06:45:51;27.08;;;16.10;;
31298;SDS011;17927;52.350;13.402;2022-11-28T06:48:17;20.55;;;14.07;;
31298;SDS011;17927;52.350;13.402;2022-11-28T06:50:43;23.05;;;13.95;;
31298;SDS011;17927;52.350;13.402;2022-11-28T06:53:08;22.80;;;13.85;;
31298;SDS011;17927;52.350;13.402;2022-11-28T06:55:33;22.33;;;13.88;;
31298;SDS011;17927;52.350;13.402;2022-11-28T06:57:59;25.08;;;14.75;;
31298;SDS011;17927;52.350;13.402;2022-11-28T07:00:24;23.77;;;13.65;;
31298;SDS011;17927;52.350;13.402;2022-11-28T07:02:49;24.48;;;13.90;;
31298;SDS011;17927;52.350;13.402;2022-11-28T07:05:23;28.00;;;15.00;;
31298;SDS011;17927;52.350;13.402;2022-11-28T07:07:51;23.65;;;14.52;;
31298;SDS011;17927;52.350;13.402;2022-11-28T07:10:17;22.92;;;14.73;;
31298;SDS011;17927;52.350;13.402;2022-11-28T07:12:43;23.25;;;13.80;;
31298;SDS011;17927;52.350;13.402;2022-11-28T07:15:08;26.20;;;14.95;;
31298;SDS011;17927;52.350;13.402;2022-11-28T07:17:34;25.75;;;14.80;;
31298;SDS011;17927;52.350;13.402;2022-11-28T07:19:59;22.73;;;13.07;;
31298;SDS011;17927;52.350;13.402;2022-11-28T07:22:24;25.75;;;15.23;;
31298;SDS011;17927;52.350;13.402;2022-11-28T07:24:50;25.90;;;14.95;;
31298;SDS011;17927;52.350;13.402;2022-11-28T07:27:16;27.17;;;14.77;;
31298;SDS011;17927;52.350;13.402;2022-11-28T07:29:41;26.95;;;16.10;;
31298;SDS011;17927;52.350;13.402;2022-11-28T07:32:07;26.58;;;16.00;;
31298;SDS011;17927;52.350;13.402;2022-11-28T07:34:32;26.30;;;15.65;;
31298;SDS011;17927;52.350;13.402;2022-11-28T07:36:58;25.58;;;15.38;;
31298;SDS011;17927;52.350;13.402;2022-11-28T07:39:23;20.67;;;13.60;;
31298;SDS011;17927;52.350;13.402;2022-11-28T07:41:48;29.00;;;15.05;;
31298;SDS011;17927;52.350;13.402;2022-11-28T07:44:14;26.15;;;14.63;;
31298;SDS011;17927;52.350;13.402;2022-11-28T07:46:42;24.92;;;14.43;;
31298;SDS011;17927;52.350;13.402;2022-11-28T07:49:08;24.95;;;14.93;;
31298;SDS011;17927;52.350;13.402;2022-11-28T07:51:33;26.35;;;15.32;;
31298;SDS011;17927;52.350;13.402;2022-11-28T07:53:59;24.27;;;15.18;;
31298;SDS011;17927;52.350;13.402;2022-11-28T07:56:25;24.70;;;15.25;;
31298;SDS011;17927;52.350;13.402;2022-11-28T07:58:53;27.77;;;15.38;;
31298;SDS011;17927;52.350;13.402;2022-11-28T08:01:22;26.85;;;16.13;;
31298;SDS011;17927;52.350;13.402;2022-11-28T08:03:49;30.52;;;16.52;;
31298;SDS011;17927;52.350;13.402;2022-11-28T08:06:16;27.67;;;16.05;;
31298;SDS011;17927;52.350;13.402;2022-11-28T08:08:43;27.25;;;16.08;;
31298;SDS011;17927;52.350;13.402;2022-11-28T08:11:10;30.05;;;16.65;;
31298;SDS011;17927;52.350;13.402;2022-11-28T08:13:36;32.85;;;16.70;;
31298;SDS011;17927;52.350;13.402;2022-11-28T08:16:10;29.23;;;15.75;;
31298;SDS011;17927;52.350;13.402;2022-11-28T08:18:38;33.22;;;16.98;;
31298;SDS011;17927;52.350;13.402;2022-11-28T08:21:07;29.48;;;15.63;;
31298;SDS011;17927;52.350;13.402;2022-11-28T08:23:37;25.50;;;14.95;;
31298;SDS011;17927;52.350;13.402;2022-11-28T08:26:04;24.92;;;15.55;;
31298;SDS011;17927;52.350;13.402;2022-11-28T08:28:31;25.70;;;14.93;;
31298;SDS011;17927;52.350;13.402;2022-11-28T08:30:57;28.65;;;16.05;;
31298;SDS011;17927;52.350;13.402;2022-11-28T08:33:25;31.00;;;16.65;;
31298;SDS011;17927;52.350;13.402;2022-11-28T08:35:51;26.50;;;15.48;;
31298;SDS011;17927;52.350;13.402;2022-11-28T08:38:16;32.53;;;16.52;;
31298;SDS011;17927;52.350;13.402;2022-11-28T08:40:42;32.55;;;17.40;;
31298;SDS011;17927;52.350;13.402;2022-11-28T08:43:07;27.45;;;16.83;;
31298;SDS011;17927;52.350;13.402;2022-11-28T08:45:33;28.27;;;16.50;;
31298;SDS011;17927;52.350;13.402;2022-11-28T08:48:00;28.42;;;15.32;;
31298;SDS011;17927;52.350;13.402;2022-11-28T08:50:26;27.77;;;15.80;;
31298;SDS011;17927;52.350;13.402;2022-11-28T08:52:51;28.98;;;15.80;;
31298;SDS011;17927;52.350;13.402;2022-11-28T08:55:16;25.00;;;15.88;;
31298;SDS011;17927;52.350;13.402;2022-11-28T08:57:41;28.63;;;16.60;;
31298;SDS011;17927;52.350;13.402;2022-11-28T09:00:07;24.98;;;15.52;;
31298;SDS011;17927;52.350;13.402;2022-11-28T09:02:32;25.25;;;15.23;;
31298;SDS011;17927;52.350;13.402;2022-11-28T09:04:58;25.45;;;16.17;;
31298;SDS011;17927;52.350;13.402;2022-11-28T09:07:23;28.95;;;15.82;;
31298;SDS011;17927;52.350;13.402;2022-11-28T09:09:48;25.13;;;16.48;;
31298;SDS011;17927;52.350;13.402;2022-11-28T09:12:13;24.98;;;15.30;;
31298;SDS011;17927;52.350;13.402;2022-11-28T09:14:39;26.38;;;15.70;;
31298;SDS011;17927;52.350;13.402;2022-11-28T09:17:04;27.85;;;16.65;;
31298;SDS011;17927;52.350;13.402;2022-11-28T09:19:29;25.42;;;15.88;;
31298;SDS011;17927;52.350;13.402;2022-11-28T09:21:55;29.70;;;14.60;;
31298;SDS011;17927;52.350;13.402;2022-11-28T09:24:20;31.10;;;15.95;;
31298;SDS011;17927;52.350;13.402;2022-11-28T09:26:45;27.52;;;15.55;;
31298;SDS011;17927;52.350;13.402;2022-11-28T09:29:10;27.92;;;15.88;;
31298;SDS011;17927;52.350;13.402;2022-11-28T09:31:36;26.58;;;14.68;;
31298;SDS011;17927;52.350;13.402;2022-11-28T09:34:01;25.88;;;15.27;;
31298;SDS011;17927;52.350;13.402;2022-11-28T09:36:27;30.58;;;16.90;;
31298;SDS011;17927;52.350;13.402;2022-11-28T09:38:54;31.50;;;17.00;;
31298;SDS011;17927;52.350;13.402;2022-11-28T09:46:58;29.17;;;16.77;;
31298;SDS011;17927;52.350;13.402;2022-11-28T09:52:26;25.40;;;16.00;;
31298;SDS011;17927;52.350;13.402;2022-11-28T10:01:13;30.48;;;16.30;;
31298;SDS011;17927;52.350;13.402;2022-11-28T10:03:41;32.55;;;17.58;;
31298;SDS011;17927;52.350;13.402;2022-11-28T10:06:26;34.90;;;17.50;;
31298;SDS011;17927;52.350;13.402;2022-11-28T10:20:47;28.63;;;15.70;;
31298;SDS011;17927;52.350;13.402;2022-11-28T10:23:37;32.70;;;16.77;;
31298;SDS011;17927;52.350;13.402;2022-11-28T10:26:08;26.27;;;14.85;;
31298;SDS011;17927;52.350;13.402;2022-11-28T10:28:41;34.22;;;16.50;;
31298;SDS011;17927;52.350;13.402;2022-11-28T10:31:15;29.60;;;15.68;;
31298;SDS011;17927;52.350;13.402;2022-11-28T10:36:25;26.25;;;16.00;;
31298;SDS011;17927;52.350;13.402;2022-11-28T10:38:55;32.83;;;16.73;;
31298;SDS011;17927;52.350;13.402;2022-11-28T10:44:34;27.05;;;15.43;;
31298;SDS011;17927;52.350;13.402;2022-11-28T10:49:49;31.02;;;15.98;;
31298;SDS011;17927;52.350;13.402;2022-11-28T10:52:30;25.20;;;14.65;;
31298;SDS011;17927;52.350;13.402;2022-11-28T10:58:10;23.55;;;14.75;;
31298;SDS011;17927;52.350;13.402;2022-11-28T11:00:46;31.25;;;15.00;;
31298;SDS011;17927;52.350;13.402;2022-11-28T11:03:15;30.60;;;15.73;;
31298;SDS011;17927;52.350;13.402;2022-11-28T11:05:42;28.88;;;15.70;;
31298;SDS011;17927;52.350;13.402;2022-11-28T11:08:21;26.42;;;15.55;;
31298;SDS011;17927;52.350;13.402;2022-11-28T11:10:52;28.35;;;15.00;;
31298;SDS011;17927;52.350;13.402;2022-11-28T11:13:26;26.27;;;15.38;;
31298;SDS011;17927;52.350;13.402;2022-11-28T11:16:01;25.67;;;14.98;;
31298;SDS011;17927;52.350;13.402;2022-11-28T11:18:35;27.70;;;16.17;;
31298;SDS011;17927;52.350;13.402;2022-11-28T11:23:43;25.63;;;14.57;;
31298;SDS011;17927;52.350;13.402;2022-11-28T11:26:28;23.73;;;14.50;;
31298;SDS011;17927;52.350;13.402;2022-11-28T11:28:58;26.70;;;14.40;;
31298;SDS011;17927;52.350;13.402;2022-11-28T11:31:25;28.65;;;15.48;;
31298;SDS011;17927;52.350;13.402;2022-11-28T11:34:00;26.85;;;14.77;;
31298;SDS011;17927;52.350;13.402;2022-11-28T11:36:29;26.67;;;14.93;;
31298;SDS011;17927;52.350;13.402;2022-11-28T11:39:29;25.77;;;13.45;;
31298;SDS011;17927;52.350;13.402;2022-11-28T11:42:31;28.55;;;13.88;;
31298;SDS011;17927;52.350;13.402;2022-11-28T11:44:43;23.95;;;12.73;;
31298;SDS011;17927;52.350;13.402;2022-11-28T11:47:09;23.00;;;13.57;;
31298;SDS011;17927;52.350;13.402;2022-11-28T11:54:52;23.45;;;13.70;;
31298;SDS011;17927;52.350;13.402;2022-11-28T11:57:22;27.15;;;14.35;;
31298;SDS011;17927;52.350;13.402;2022-11-28T11:59:52;22.02;;;13.48;;
31298;SDS011;17927;52.350;13.402;2022-11-28T12:05:04;26.13;;;15.98;;
31298;SDS011;17927;52.350;13.402;2022-11-28T12:07:47;25.63;;;14.43;;
31298;SDS011;17927;52.350;13.402;2022-11-28T12:10:25;23.40;;;14.18;;
31298;SDS011;17927;52.350;13.402;2022-11-28T12:12:53;23.08;;;13.20;;
31298;SDS011;17927;52.350;13.402;2022-11-28T12:18:18;24.63;;;13.85;;
31298;SDS011;17927;52.350;13.402;2022-11-28T12:21:00;21.15;;;13.05;;
31298;SDS011;17927;52.350;13.402;2022-11-28T12:26:40;22.08;;;13.10;;
31298;SDS011;17927;52.350;13.402;2022-11-28T12:29:31;21.50;;;12.77;;
31298;SDS011;17927;52.350;13.402;2022-11-28T12:32:27;22.98;;;12.80;;
31298;SDS011;17927;52.350;13.402;2022-11-28T12:37:54;20.48;;;12.38;;
31298;SDS011;17927;52.350;13.402;2022-11-28T12:43:54;20.60;;;12.02;;
31298;SDS011;17927;52.350;13.402;2022-11-28T12:46:45;21.17;;;11.75;;
31298;SDS011;17927;52.350;13.402;2022-11-28T12:52:39;18.23;;;11.90;;
31298;SDS011;17927;52.350;13.402;2022-11-28T12:55:30;19.88;;;12.48;;
31298;SDS011;17927;52.350;13.402;2022-11-28T12:58:25;18.55;;;11.77;;
31298;SDS011;17927;52.350;13.402;2022-11-28T13:04:05;21.52;;;12.23;;
31298;SDS011;17927;52.350;13.402;2022-11-28T13:07:01;18.65;;;11.45;;
31298;SDS011;17927;52.350;13.402;2022-11-28T13:09:36;19.85;;;11.93;;
31298;SDS011;17927;52.350;13.402;2022-11-28T13:15:35;17.52;;;11.38;;
31298;SDS011;17927;52.350;13.402;2022-11-28T13:18:10;20.20;;;11.60;;
31298;SDS011;17927;52.350;13.402;2022-11-28T13:20:53;22.30;;;11.38;;
31298;SDS011;17927;52.350;13.402;2022-11-28T13:23:28;21.33;;;11.82;;
31298;SDS011;17927;52.350;13.402;2022-11-28T13:26:02;21.67;;;12.07;;
31298;SDS011;17927;52.350;13.402;2022-11-28T13:31:10;17.60;;;11.48;;
31298;SDS011;17927;52.350;13.402;2022-11-28T13:36:23;21.83;;;13.55;;
31298;SDS011;17927;52.350;13.402;2022-11-28T13:38:57;28.90;;;14.07;;
31298;SDS011;17927;52.350;13.402;2022-11-28T13:41:37;28.33;;;15.18;;
31298;SDS011;17927;52.350;13.402;2022-11-28T13:44:16;32.70;;;16.67;;
31298;SDS011;17927;52.350;13.402;2022-11-28T13:46:52;27.10;;;14.32;;
31298;SDS011;17927;52.350;13.402;2022-11-28T13:49:19;32.03;;;17.13;;
31298;SDS011;17927;52.350;13.402;2022-11-28T13:54:40;28.98;;;15.68;;
31298;SDS011;17927;52.350;13.402;2022-11-28T13:59:32;25.17;;;16.27;;
31298;SDS011;17927;52.350;13.402;2022-11-28T14:01:59;30.20;;;16.23;;
31298;SDS011;17927;52.350;13.402;2022-11-28T14:04:27;27.05;;;15.35;;
31298;SDS011;17927;52.350;13.402;2022-11-28T14:06:57;26.83;;;15.13;;
31298;SDS011;17927;52.350;13.402;2022-11-28T14:14:54;27.33;;;15.90;;
31298;SDS011;17927;52.350;13.402;2022-11-28T14:18:00;25.20;;;15.45;;
31298;SDS011;17927;52.350;13.402;2022-11-28T14:20:51;26.85;;;14.75;;
31298;SDS011;17927;52.350;13.402;2022-11-28T14:23:33;27.35;;;14.40;;
31298;SDS011;17927;52.350;13.402;2022-11-28T14:26:13;28.27;;;15.57;;
31298;SDS011;17927;52.350;13.402;2022-11-28T14:28:50;28.40;;;16.35;;
31298;SDS011;17927;52.350;13.402;2022-11-28T14:31:29;22.23;;;14.65;;
31298;SDS011;17927;52.350;13.402;2022-11-28T14:34:40;28.00;;;15.45;;
31298;SDS011;17927;52.350;13.402;2022-11-28T14:39:48;30.30;;;16.23;;
31298;SDS011;17927;52.350;13.402;2022-11-28T14:44:53;28.52;;;14.98;;
31298;SDS011;17927;52.350;13.402;2022-11-28T14:52:35;28.65;;;16.83;;
31298;SDS011;17927;52.350;13.402;2022-11-28T14:55:12;33.05;;;16.15;;
31298;SDS011;17927;52.350;13.402;2022-11-28T15:00:15;34.78;;;17.27;;
31298;SDS011;17927;52.350;13.402;2022-11-28T15:02:46;26.55;;;16.00;;
31298;SDS011;17927;52.350;13.402;2022-11-28T15:10:48;30.75;;;18.10;;
31298;SDS011;17927;52.350;13.402;2022-11-28T15:13:34;29.48;;;16.17;;
31298;SDS011;17927;52.350;13.402;2022-11-28T15:16:20;30.02;;;16.40;;
31298;SDS011;17927;52.350;13.402;2022-11-28T15:18:49;30.38;;;16.55;;
31298;SDS011;17927;52.350;13.402;2022-11-28T15:21:18;31.80;;;17.67;;
31298;SDS011;17927;52.350;13.402;2022-11-28T15:23:44;35.40;;;18.30;;
31298;SDS011;17927;52.350;13.402;2022-11-28T15:26:20;32.20;;;17.98;;
31298;SDS011;17927;52.350;13.402;2022-11-28T15:29:06;31.88;;;17.92;;
31298;SDS011;17927;52.350;13.402;2022-11-28T15:31:32;26.45;;;16.65;;
31298;SDS011;17927;52.350;13.402;2022-11-28T15:33:57;32.25;;;17.95;;
31298;SDS011;17927;52.350;13.402;2022-11-28T15:36:24;31.67;;;17.75;;
31298;SDS011;17927;52.350;13.402;2022-11-28T15:38:52;30.55;;;18.08;;
31298;SDS011;17927;52.350;13.402;2022-11-28T15:41:24;33.80;;;17.50;;
31298;SDS011;17927;52.350;13.402;2022-11-28T15:43:51;33.00;;;18.07;;
31298;SDS011;17927;52.350;13.402;2022-11-28T15:46:19;35.00;;;18.88;;
31298;SDS011;17927;52.350;13.402;2022-11-28T15:48:50;30.95;;;17.67;;
31298;SDS011;17927;52.350;13.402;2022-11-28T15:51:23;32.03;;;18.75;;
31298;SDS011;17927;52.350;13.402;2022-11-28T15:53:51;29.98;;;17.80;;
31298;SDS011;17927;52.350;13.402;2022-11-28T15:56:17;35.75;;;18.83;;
31298;SDS011;17927;52.350;13.402;2022-11-28T15:58:43;35.90;;;19.05;;
31298;SDS011;17927;52.350;13.402;2022-11-28T16:01:12;36.15;;;19.70;;
31298;SDS011;17927;52.350;13.402;2022-11-28T16:03:44;35.78;;;19.67;;
31298;SDS011;17927;52.350;13.402;2022-11-28T16:06:13;35.88;;;20.23;;
31298;SDS011;17927;52.350;13.402;2022-11-28T16:08:48;32.28;;;18.48;;
31298;SDS011;17927;52.350;13.402;2022-11-28T16:11:17;35.83;;;19.95;;
31298;SDS011;17927;52.350;13.402;2022-11-28T16:13:45;37.42;;;20.30;;
31298;SDS011;17927;52.350;13.402;2022-11-28T16:16:18;39.63;;;20.30;;
31298;SDS011;17927;52.350;13.402;2022-11-28T16:18:54;35.72;;;20.55;;
31298;SDS011;17927;52.350;13.402;2022-11-28T16:21:29;34.70;;;19.08;;
31298;SDS011;17927;52.350;13.402;2022-11-28T16:23:58;31.27;;;17.85;;
31298;SDS011;17927;52.350;13.402;2022-11-28T16:26:28;35.00;;;19.85;;
31298;SDS011;17927;52.350;13.402;2022-11-28T16:29:16;39.40;;;20.73;;
31298;SDS011;17927;52.350;13.402;2022-11-28T16:31:41;36.28;;;20.15;;
31298;SDS011;17927;52.350;13.402;2022-11-28T16:34:10;37.42;;;20.98;;
31298;SDS011;17927;52.350;13.402;2022-11-28T16:36:37;39.35;;;20.73;;
31298;SDS011;17927;52.350;13.402;2022-11-28T16:41:35;41.03;;;20.75;;
31298;SDS011;17927;52.350;13.402;2022-11-28T16:44:05;36.90;;;20.67;;
31298;SDS011;17927;52.350;13.402;2022-11-28T16:46:39;39.33;;;21.27;;
31298;SDS011;17927;52.350;13.402;2022-11-28T16:49:30;41.35;;;21.08;;
31298;SDS011;17927;52.350;13.402;2022-11-28T16:52:39;43.53;;;22.25;;
31298;SDS011;17927;52.350;13.402;2022-11-28T16:54:51;36.72;;;20.33;;
31298;SDS011;17927;52.350;13.402;2022-11-28T16:57:20;40.10;;;21.13;;
31298;SDS011;17927;52.350;13.402;2022-11-28T16:59:46;40.03;;;23.00;;